createdAt,value
2019-03-20T00:02:19.439Z,23.33
2019-03-20T00:04:49.867Z,21.77
2019-03-20T00:07:14.295Z,21.63
2019-03-20T00:09:41.732Z,22.90
2019-03-20T00:12:09.240Z,26.33
2019-03-20T00:14:36.679Z,21.87
2019-03-20T00:17:04.195Z,24.90
2019-03-20T00:19:31.507Z,22.67
2019-03-20T00:21:58.945Z,20.97
2019-03-20T00:24:26.347Z,20.10
2019-03-20T00:26:53.785Z,23.37
2019-03-20T00:29:21.204Z,23.40
2019-03-20T00:31:48.710Z,19.97
2019-03-20T00:34:16.139Z,23.30
2019-03-20T00:36:45.753Z,23.70
2019-03-20T00:39:13.191Z,20.80
2019-03-20T00:41:40.614Z,20.30
2019-03-20T00:44:08.044Z,19.60
2019-03-20T00:46:35.462Z,22.17
2019-03-20T00:49:02.889Z,28.03
2019-03-20T00:51:30.313Z,24.53
2019-03-20T00:53:57.722Z,24.60
2019-03-20T00:56:25.159Z,22.00
2019-03-20T00:58:52.566Z,17.83
2019-03-20T01:01:20.000Z,19.97
2019-03-20T01:03:47.425Z,21.57
2019-03-20T01:06:14.861Z,20.03
2019-03-20T01:08:42.281Z,20.70
2019-03-20T01:11:09.715Z,23.20
2019-03-20T01:13:37.128Z,20.20
2019-03-20T01:16:04.572Z,24.47
2019-03-20T01:18:32.008Z,21.60
2019-03-20T01:20:59.447Z,20.63
2019-03-20T01:23:26.852Z,19.33
2019-03-20T01:25:54.282Z,25.63
2019-03-20T01:28:21.678Z,20.37
2019-03-20T01:30:49.114Z,25.33
2019-03-20T01:33:16.545Z,22.50
2019-03-20T01:35:43.957Z,19.67
2019-03-20T01:38:11.391Z,19.23
2019-03-20T01:40:40.244Z,22.83
2019-03-20T01:43:06.203Z,25.73
2019-03-20T01:45:33.643Z,22.77
2019-03-20T01:48:01.070Z,28.37
2019-03-20T01:50:28.484Z,21.27
2019-03-20T01:52:55.914Z,22.97
2019-03-20T01:55:23.320Z,23.63
2019-03-20T01:57:50.740Z,20.50
2019-03-20T02:00:18.145Z,20.67
2019-03-20T02:02:45.583Z,23.33
2019-03-20T02:05:13.019Z,23.17
2019-03-20T02:07:40.441Z,19.83
2019-03-20T02:10:14.059Z,26.80
2019-03-20T02:12:41.463Z,23.73
2019-03-20T02:15:11.757Z,23.67
2019-03-20T02:17:39.185Z,24.13
2019-03-20T02:20:06.597Z,24.93
2019-03-20T02:22:34.033Z,22.67
2019-03-20T02:25:01.443Z,20.23
2019-03-20T02:27:28.846Z,22.97
2019-03-20T02:29:56.282Z,23.47
2019-03-20T02:32:23.736Z,23.40
2019-03-20T02:34:51.142Z,22.17
2019-03-20T02:37:18.540Z,23.13
2019-03-20T02:39:45.972Z,20.67
2019-03-20T02:42:13.402Z,19.77
2019-03-20T02:44:40.808Z,22.10
2019-03-20T02:47:08.243Z,26.17
2019-03-20T02:49:35.670Z,17.83
2019-03-20T02:52:06.079Z,23.97
2019-03-20T02:54:33.538Z,21.97
2019-03-20T02:57:04.914Z,24.30
2019-03-20T02:59:31.062Z,22.70
2019-03-20T03:01:58.474Z,22.40
2019-03-20T03:04:25.886Z,26.93
2019-03-20T03:06:55.750Z,25.57
2019-03-20T03:09:23.193Z,27.20
2019-03-20T03:11:50.596Z,23.33
2019-03-20T03:14:18.010Z,23.23
2019-03-20T03:16:45.456Z,23.20
2019-03-20T03:19:12.857Z,22.00
2019-03-20T03:22:00.178Z,26.87
2019-03-20T03:24:27.588Z,24.77
2019-03-20T03:26:55.008Z,23.30
2019-03-20T03:29:22.442Z,21.07
2019-03-20T03:31:49.886Z,22.97
2019-03-20T03:34:17.291Z,22.70
2019-03-20T03:36:44.733Z,23.73
2019-03-20T03:39:13.295Z,26.67
2019-03-20T03:41:39.577Z,23.03
2019-03-20T03:44:07.009Z,23.20
2019-03-20T03:46:34.433Z,21.17
2019-03-20T03:49:01.875Z,25.03
2019-03-20T03:51:29.292Z,24.57
2019-03-20T03:53:56.733Z,21.67
2019-03-20T03:56:24.142Z,21.07
2019-03-20T03:58:51.689Z,21.70
2019-03-20T04:01:19.095Z,24.90
2019-03-20T04:03:46.518Z,22.80
2019-03-20T04:06:13.984Z,22.50
2019-03-20T04:08:44.174Z,23.73
2019-03-20T04:11:11.629Z,25.30
2019-03-20T04:13:39.061Z,24.20
2019-03-20T04:16:06.528Z,23.93
2019-03-20T04:18:33.918Z,24.47
2019-03-20T04:21:01.429Z,26.77
2019-03-20T04:23:28.832Z,23.70
2019-03-20T04:25:56.300Z,23.83
2019-03-20T04:28:23.692Z,25.53
2019-03-20T04:30:51.127Z,22.43
2019-03-20T04:33:18.528Z,23.30
2019-03-20T04:35:45.960Z,22.03
2019-03-20T04:38:13.376Z,24.57
2019-03-20T04:40:40.811Z,24.77
2019-03-20T04:43:08.225Z,21.87
2019-03-20T04:45:35.630Z,27.90
2019-03-20T04:48:03.063Z,23.50
2019-03-20T04:50:30.468Z,26.87
2019-03-20T04:52:57.902Z,23.60
2019-03-20T04:55:25.299Z,27.50
2019-03-20T04:57:52.714Z,24.03
2019-03-20T05:00:23.075Z,25.77
2019-03-20T05:02:50.511Z,22.57
2019-03-20T05:05:17.939Z,28.33
2019-03-20T05:07:45.352Z,27.80
2019-03-20T05:10:18.731Z,25.30
2019-03-20T05:12:46.181Z,29.73
2019-03-20T05:15:13.569Z,27.60
2019-03-20T05:17:41.010Z,31.87
2019-03-20T05:20:11.150Z,28.37
2019-03-20T05:22:38.574Z,30.63
2019-03-20T05:25:06.009Z,26.57
2019-03-20T05:27:33.420Z,29.33
2019-03-20T05:30:00.857Z,30.70
2019-03-20T05:32:28.285Z,34.33
2019-03-20T05:34:55.693Z,30.33
2019-03-20T05:37:23.130Z,27.00
2019-03-20T05:39:50.554Z,26.03
2019-03-20T05:42:17.967Z,29.30
2019-03-20T05:44:45.388Z,28.40
2019-03-20T05:47:12.784Z,29.50
2019-03-20T05:49:40.217Z,28.70
2019-03-20T05:52:07.630Z,31.17
2019-03-20T05:54:35.031Z,31.67
2019-03-20T05:57:02.477Z,29.83
2019-03-20T05:59:29.921Z,34.67
2019-03-20T06:01:57.330Z,36.57
2019-03-20T06:04:24.746Z,36.87
2019-03-20T06:06:52.165Z,36.30
2019-03-20T06:09:19.583Z,36.07
2019-03-20T06:11:47.022Z,33.20
2019-03-20T06:14:14.440Z,34.47
2019-03-20T06:16:41.860Z,39.30
2019-03-20T06:19:09.291Z,36.30
2019-03-20T06:21:36.698Z,35.10
2019-03-20T06:24:04.107Z,34.10
2019-03-20T06:26:31.546Z,39.87
2019-03-20T06:28:58.964Z,37.37
2019-03-20T06:31:26.395Z,36.87
2019-03-20T06:33:53.799Z,35.87
2019-03-20T06:36:21.234Z,37.10
2019-03-20T06:38:48.635Z,31.43
2019-03-20T06:41:16.068Z,33.63
2019-03-20T06:43:43.513Z,29.33
2019-03-20T06:46:10.919Z,30.13
2019-03-20T06:48:38.399Z,32.17
2019-03-20T06:51:05.806Z,31.53
2019-03-20T06:53:33.216Z,26.80
2019-03-20T06:56:00.656Z,34.40
2019-03-20T06:58:28.099Z,27.17
2019-03-20T07:01:04.078Z,29.50
2019-03-20T07:03:31.513Z,31.00
2019-03-20T07:05:58.943Z,31.50
2019-03-20T07:08:26.357Z,29.43
2019-03-20T07:11:05.296Z,29.67
2019-03-20T07:13:32.707Z,28.83
2019-03-20T07:16:00.153Z,26.43
2019-03-20T07:18:27.575Z,25.93
2019-03-20T07:20:54.979Z,25.83
2019-03-20T07:23:22.424Z,30.20
2019-03-20T07:25:49.852Z,25.20
2019-03-20T07:28:17.274Z,23.73
2019-03-20T07:30:44.686Z,22.47
2019-03-20T07:33:12.092Z,21.30
2019-03-20T07:35:39.528Z,24.50
2019-03-20T07:38:06.935Z,27.10
2019-03-20T07:40:34.377Z,20.37
2019-03-20T07:43:08.613Z,22.03
2019-03-20T07:45:29.300Z,22.67
2019-03-20T07:47:56.743Z,17.63
2019-03-20T07:50:24.149Z,21.67
2019-03-20T07:52:51.589Z,18.87
2019-03-20T07:55:18.998Z,19.17
2019-03-20T07:57:46.402Z,20.97
2019-03-20T08:00:13.852Z,21.20
2019-03-20T08:02:41.287Z,17.73
2019-03-20T08:05:08.694Z,17.37
2019-03-20T08:07:36.154Z,15.33
2019-03-20T08:10:03.559Z,14.30
2019-03-20T08:12:30.950Z,15.53
2019-03-20T08:14:58.392Z,15.97
2019-03-20T08:17:25.787Z,14.07
2019-03-20T08:19:53.207Z,13.07
2019-03-20T08:22:20.626Z,11.63
2019-03-20T08:24:48.029Z,10.97
2019-03-20T08:27:15.453Z,12.10
2019-03-20T08:29:42.851Z,10.57
2019-03-20T08:32:10.276Z,10.57
2019-03-20T08:34:37.678Z,10.10
2019-03-20T08:37:05.102Z,9.40
2019-03-20T08:39:32.507Z,10.07
2019-03-20T08:41:59.927Z,10.20
2019-03-20T08:44:27.361Z,9.80
2019-03-20T08:46:54.754Z,8.50
2019-03-20T08:49:22.149Z,8.50
2019-03-20T08:51:49.576Z,10.60
2019-03-20T08:54:16.969Z,8.77
2019-03-20T08:56:44.490Z,10.23
2019-03-20T08:59:11.891Z,7.40
2019-03-20T09:01:39.283Z,6.47
2019-03-20T09:04:06.706Z,8.67
2019-03-20T09:06:34.096Z,9.67
2019-03-20T09:09:01.510Z,9.07
2019-03-20T09:11:28.914Z,8.33
2019-03-20T09:13:56.336Z,8.73
2019-03-20T09:16:23.766Z,8.10
2019-03-20T09:18:51.179Z,4.83
2019-03-20T09:21:18.595Z,7.30
2019-03-20T09:23:46.029Z,8.20
2019-03-20T09:26:13.431Z,5.77
2019-03-20T09:28:40.827Z,8.20
2019-03-20T09:31:08.260Z,7.53
2019-03-20T09:33:35.659Z,4.97
2019-03-20T09:36:03.080Z,8.10
2019-03-20T09:38:30.506Z,5.73
2019-03-20T09:40:57.928Z,11.10
2019-03-20T09:43:25.314Z,9.03
2019-03-20T09:45:52.732Z,6.43
2019-03-20T09:48:20.128Z,7.77
2019-03-20T09:50:47.549Z,6.80
2019-03-20T09:53:14.962Z,6.23
2019-03-20T09:55:42.369Z,6.80
2019-03-20T09:58:11.885Z,6.50
2019-03-20T10:00:37.197Z,6.17
2019-03-20T10:03:04.623Z,8.30
2019-03-20T10:05:32.028Z,8.10
2019-03-20T10:07:59.435Z,9.73
2019-03-20T10:10:26.863Z,7.17
2019-03-20T10:12:54.309Z,6.27
2019-03-20T10:15:30.145Z,7.27
2019-03-20T10:17:57.569Z,4.80
2019-03-20T10:20:24.952Z,7.43
2019-03-20T10:22:52.387Z,6.57
2019-03-20T10:25:19.782Z,8.43
2019-03-20T10:27:47.180Z,5.70
2019-03-20T10:30:20.365Z,4.57
2019-03-20T10:32:47.761Z,6.63
2019-03-20T10:35:15.173Z,6.50
2019-03-20T10:37:42.571Z,5.67
2019-03-20T10:40:10.032Z,6.07
2019-03-20T10:42:37.467Z,6.77
2019-03-20T10:45:04.911Z,8.63
2019-03-20T10:47:32.333Z,8.87
2019-03-20T10:49:59.752Z,6.03
2019-03-20T10:52:27.151Z,8.87
2019-03-20T10:54:54.570Z,10.43
2019-03-20T10:57:21.958Z,5.90
2019-03-20T10:59:49.376Z,6.77
2019-03-20T11:02:16.803Z,7.50
2019-03-20T11:04:44.220Z,6.80
2019-03-20T11:07:11.643Z,10.77
2019-03-20T11:09:39.057Z,8.00
2019-03-20T11:12:06.470Z,8.70
2019-03-20T11:14:33.874Z,5.07
2019-03-20T11:17:01.298Z,7.40
2019-03-20T11:19:28.697Z,6.90
2019-03-20T11:21:56.123Z,6.47
2019-03-20T11:24:23.530Z,6.73
2019-03-20T11:26:50.924Z,5.80
2019-03-20T11:29:21.654Z,5.20
2019-03-20T11:31:45.739Z,6.60
2019-03-20T11:34:13.162Z,6.73
2019-03-20T11:36:40.580Z,5.00
2019-03-20T11:39:08.014Z,5.33
2019-03-20T11:41:35.412Z,5.70
2019-03-20T11:44:02.900Z,4.80
2019-03-20T11:46:30.301Z,6.37
2019-03-20T11:48:57.728Z,6.63
2019-03-20T11:51:25.149Z,5.80
2019-03-20T11:53:52.567Z,4.27
2019-03-20T11:56:19.988Z,4.37
2019-03-20T11:58:47.393Z,3.77
2019-03-20T12:01:17.745Z,3.90
2019-03-20T12:03:45.145Z,6.47
2019-03-20T12:06:12.540Z,4.67
2019-03-20T12:08:39.960Z,6.10
2019-03-20T12:11:07.359Z,5.17
2019-03-20T12:13:34.797Z,4.90
2019-03-20T12:16:02.192Z,2.63
2019-03-20T12:18:29.607Z,12.80
2019-03-20T12:20:57.049Z,4.53
2019-03-20T12:23:24.431Z,3.87
2019-03-20T12:25:51.856Z,5.10
2019-03-20T12:28:19.284Z,6.40
2019-03-20T12:30:46.727Z,6.93
2019-03-20T12:33:14.136Z,7.03
2019-03-20T12:35:41.561Z,5.73
2019-03-20T12:38:14.699Z,4.40
2019-03-20T12:40:36.382Z,3.77
2019-03-20T12:43:03.831Z,5.17
2019-03-20T12:45:37.408Z,4.40
2019-03-20T12:48:07.567Z,5.57
2019-03-20T12:50:34.879Z,5.83
2019-03-20T12:53:02.308Z,6.17
2019-03-20T12:55:31.063Z,6.17
2019-03-20T12:57:57.145Z,4.03
2019-03-20T13:00:27.182Z,5.00
2019-03-20T13:02:51.975Z,9.10
2019-03-20T13:05:19.370Z,5.30
2019-03-20T13:07:46.794Z,6.30
2019-03-20T13:10:17.140Z,7.70
2019-03-20T13:12:44.541Z,3.00
2019-03-20T13:15:21.157Z,4.70
2019-03-20T13:17:48.554Z,6.27
2019-03-20T13:20:15.980Z,5.03
2019-03-20T13:22:43.397Z,6.47
2019-03-20T13:25:16.575Z,9.37
2019-03-20T13:27:44.018Z,3.40
2019-03-20T13:30:32.438Z,3.80
2019-03-20T13:32:59.832Z,5.87
2019-03-20T13:35:27.256Z,3.77
2019-03-20T13:37:54.656Z,5.80
2019-03-20T13:40:22.081Z,5.27
2019-03-20T13:42:49.478Z,7.60
2019-03-20T13:45:19.316Z,5.03
2019-03-20T13:47:46.739Z,5.53
2019-03-20T13:50:14.140Z,3.67
2019-03-20T13:52:41.560Z,4.63
2019-03-20T13:55:08.961Z,3.80
2019-03-20T13:57:36.391Z,4.13
2019-03-20T14:00:03.787Z,5.67
2019-03-20T14:02:31.207Z,2.90
2019-03-20T14:04:58.597Z,4.77
2019-03-20T14:07:26.007Z,4.97
2019-03-20T14:09:53.409Z,3.50
2019-03-20T14:12:20.808Z,3.77
2019-03-20T14:14:48.222Z,3.70
2019-03-20T14:17:15.628Z,4.10
2019-03-20T14:19:43.064Z,4.73
2019-03-20T14:22:10.481Z,4.40
2019-03-20T14:24:37.889Z,4.47
2019-03-20T14:27:05.302Z,5.50
2019-03-20T14:29:32.710Z,3.53
2019-03-20T14:32:00.131Z,3.13
2019-03-20T14:34:27.521Z,5.57
2019-03-20T14:36:54.927Z,3.67
2019-03-20T14:39:22.323Z,6.03
2019-03-20T14:41:49.744Z,4.23
2019-03-20T14:44:17.138Z,4.67
2019-03-20T14:46:44.541Z,5.00
2019-03-20T14:49:11.974Z,4.83
2019-03-20T14:51:39.370Z,4.53
2019-03-20T14:54:06.764Z,3.73
2019-03-20T14:56:34.208Z,3.53
2019-03-20T14:59:01.639Z,4.40
2019-03-20T15:01:29.040Z,3.93
2019-03-20T15:03:56.467Z,5.20
2019-03-20T15:06:23.897Z,5.17
2019-03-20T15:08:51.327Z,5.00
2019-03-20T15:11:18.731Z,7.67
2019-03-20T15:13:46.159Z,2.97
2019-03-20T15:16:13.575Z,3.40
2019-03-20T15:18:40.982Z,5.57
2019-03-20T15:21:08.391Z,5.60
2019-03-20T15:23:35.808Z,6.20
2019-03-20T15:26:03.222Z,6.37
2019-03-20T15:28:30.639Z,4.10
2019-03-20T15:30:58.063Z,3.80
2019-03-20T15:33:25.482Z,5.97
2019-03-20T15:35:52.878Z,4.53
2019-03-20T15:38:20.295Z,6.63
2019-03-20T15:40:55.861Z,4.60
2019-03-20T15:43:15.104Z,3.13
2019-03-20T15:45:42.503Z,5.77
2019-03-20T15:48:09.936Z,2.93
2019-03-20T15:50:37.336Z,4.57
2019-03-20T15:53:04.727Z,4.47
2019-03-20T15:55:32.162Z,3.53
2019-03-20T15:57:59.580Z,4.07
2019-03-20T16:00:26.994Z,4.30
2019-03-20T16:03:18.617Z,5.23
2019-03-20T16:05:46.026Z,3.80
2019-03-20T16:08:13.438Z,4.63
2019-03-20T16:10:40.863Z,4.17
2019-03-20T16:13:08.257Z,4.00
2019-03-20T16:15:35.673Z,6.30
2019-03-20T16:18:03.110Z,2.97
2019-03-20T16:20:30.508Z,3.90
2019-03-20T16:22:57.931Z,5.23
2019-03-20T16:25:25.327Z,3.50
2019-03-20T16:27:52.754Z,2.80
2019-03-20T16:30:23.054Z,4.00
2019-03-20T16:32:50.454Z,4.20
2019-03-20T16:35:17.884Z,5.87
2019-03-20T16:37:45.290Z,14.93
2019-03-20T16:40:24.410Z,11.00
2019-03-20T16:42:51.831Z,6.43
2019-03-20T16:45:19.278Z,6.57
2019-03-20T16:47:46.637Z,4.83
2019-03-20T16:50:16.737Z,4.37
2019-03-20T16:52:44.133Z,3.93
2019-03-20T16:55:11.578Z,7.37
2019-03-20T16:57:39.021Z,4.33
2019-03-20T17:00:18.664Z,4.63
2019-03-20T17:02:46.085Z,5.47
2019-03-20T17:05:13.486Z,3.60
2019-03-20T17:07:40.907Z,5.10
2019-03-20T17:10:08.309Z,5.50
2019-03-20T17:12:35.731Z,7.30
2019-03-20T17:15:03.153Z,6.83
2019-03-20T17:17:30.555Z,6.60
2019-03-20T17:19:57.981Z,4.30
2019-03-20T17:22:25.375Z,6.07
2019-03-20T17:24:52.769Z,5.73
2019-03-20T17:27:20.200Z,6.73
2019-03-20T17:29:47.619Z,7.13
2019-03-20T17:32:15.045Z,5.90
2019-03-20T17:34:42.459Z,9.17
2019-03-20T17:37:09.890Z,6.53
2019-03-20T17:39:37.291Z,7.37
2019-03-20T17:42:04.744Z,5.93
2019-03-20T17:44:32.135Z,5.90
2019-03-20T17:46:59.540Z,6.87
2019-03-20T17:49:26.951Z,6.30
2019-03-20T17:51:54.370Z,5.60
2019-03-20T17:54:21.790Z,6.30
2019-03-20T17:56:49.228Z,6.00
2019-03-20T17:59:16.656Z,6.87
2019-03-20T18:01:44.056Z,5.47
2019-03-20T18:04:11.491Z,7.47
2019-03-20T18:06:38.898Z,9.13
2019-03-20T18:09:06.342Z,7.63
2019-03-20T18:11:33.726Z,8.00
2019-03-20T18:14:01.152Z,8.00
2019-03-20T18:16:28.542Z,7.10
2019-03-20T18:18:55.971Z,7.67
2019-03-20T18:21:23.392Z,8.90
2019-03-20T18:23:50.814Z,8.53
2019-03-20T18:26:18.211Z,8.07
2019-03-20T18:28:45.614Z,7.67
2019-03-20T18:31:13.045Z,11.60
2019-03-20T18:33:40.482Z,10.37
2019-03-20T18:36:07.940Z,7.27
2019-03-20T18:38:35.360Z,12.17
2019-03-20T18:41:02.748Z,9.10
2019-03-20T18:43:30.192Z,9.47
2019-03-20T18:45:57.640Z,10.33
2019-03-20T18:48:25.079Z,12.70
2019-03-20T18:50:52.499Z,12.73
2019-03-20T18:53:19.899Z,12.37
2019-03-20T18:55:47.348Z,13.77
2019-03-20T18:58:14.732Z,25.93
2019-03-20T19:00:42.186Z,11.77
2019-03-20T19:03:24.623Z,13.87
2019-03-20T19:05:52.054Z,13.60
2019-03-20T19:08:19.470Z,13.63
2019-03-20T19:10:46.874Z,15.00
2019-03-20T19:13:14.313Z,16.80
2019-03-20T19:15:41.723Z,16.23
2019-03-20T19:18:09.175Z,15.70
2019-03-20T19:20:36.592Z,16.27
2019-03-20T19:23:04.037Z,14.53
2019-03-20T19:25:31.454Z,13.57
2019-03-20T19:27:58.953Z,14.43
2019-03-20T19:30:26.391Z,14.57
2019-03-20T19:32:54.086Z,10.87
2019-03-20T19:35:21.534Z,9.70
2019-03-20T19:37:48.927Z,9.40
2019-03-20T19:40:16.328Z,10.60
2019-03-20T19:42:43.803Z,9.67
2019-03-20T19:45:11.261Z,10.63
2019-03-20T19:47:38.662Z,9.23
2019-03-20T19:50:06.091Z,13.97
2019-03-20T19:52:33.499Z,9.43
2019-03-20T19:55:00.930Z,11.23
2019-03-20T19:57:28.431Z,9.57
2019-03-20T19:59:55.802Z,11.57
2019-03-20T20:02:23.230Z,11.67
2019-03-20T20:04:50.713Z,12.23
2019-03-20T20:07:18.111Z,13.60
2019-03-20T20:09:45.515Z,14.57
2019-03-20T20:12:12.975Z,16.33
2019-03-20T20:14:40.405Z,14.03
2019-03-20T20:17:07.824Z,12.13
2019-03-20T20:19:35.275Z,13.00
2019-03-20T20:22:02.705Z,13.63
2019-03-20T20:24:30.108Z,12.13
2019-03-20T20:26:57.544Z,12.90
2019-03-20T20:29:24.981Z,20.00
2019-03-20T20:31:52.435Z,19.10
2019-03-20T20:34:19.886Z,20.93
2019-03-20T20:36:47.304Z,19.87
2019-03-20T20:39:14.741Z,18.40
2019-03-20T20:41:42.163Z,15.33
2019-03-20T20:44:09.711Z,14.23
2019-03-20T20:46:37.400Z,15.07
2019-03-20T20:49:04.837Z,11.27
2019-03-20T20:51:32.242Z,10.93
2019-03-20T20:53:59.648Z,9.73
2019-03-20T20:56:27.092Z,10.57
2019-03-20T20:58:54.495Z,12.50
2019-03-20T21:01:21.917Z,10.07
2019-03-20T21:03:49.334Z,12.17
2019-03-20T21:06:16.762Z,11.60
2019-03-20T21:08:44.201Z,11.83
2019-03-20T21:11:11.674Z,11.80
2019-03-20T21:13:39.053Z,11.30
2019-03-20T21:16:06.498Z,12.77
2019-03-20T21:18:45.561Z,12.93
2019-03-20T21:21:13.027Z,12.73
2019-03-20T21:24:17.523Z,12.63
2019-03-20T21:26:59.585Z,14.37
2019-03-20T21:29:51.369Z,12.70
2019-03-20T21:32:36.767Z,13.20
2019-03-20T21:35:25.516Z,14.73
2019-03-20T21:38:04.270Z,11.07
2019-03-20T21:40:37.522Z,11.33
2019-03-20T21:43:42.141Z,12.07
2019-03-20T21:46:33.721Z,11.88
2019-03-20T21:49:01.174Z,12.07
2019-03-20T21:51:28.604Z,13.47
2019-03-20T21:53:58.954Z,10.57
2019-03-20T21:56:28.947Z,11.97
2019-03-20T21:59:14.639Z,12.93
2019-03-20T22:01:56.755Z,11.93
2019-03-20T22:04:24.205Z,15.47
2019-03-20T22:07:06.725Z,16.07
2019-03-20T22:09:34.281Z,13.83
2019-03-20T22:12:10.496Z,14.97
2019-03-20T22:14:37.912Z,19.43
2019-03-20T22:17:20.331Z,13.63
2019-03-20T22:19:59.378Z,17.40
2019-03-20T22:22:38.668Z,15.30
2019-03-20T22:25:17.716Z,14.93
2019-03-20T22:27:45.188Z,15.43
2019-03-20T22:30:12.588Z,14.53
2019-03-20T22:32:58.170Z,12.80
2019-03-20T22:35:34.027Z,15.23
2019-03-20T22:38:01.460Z,13.30
2019-03-20T22:41:05.430Z,16.23
2019-03-20T22:43:35.560Z,16.27
2019-03-20T22:46:05.729Z,14.77
2019-03-20T22:48:57.912Z,14.47
2019-03-20T22:51:58.477Z,15.00
2019-03-20T22:54:52.840Z,16.10
2019-03-20T22:57:32.069Z,13.70
2019-03-20T22:59:59.511Z,14.83
2019-03-20T23:02:32.598Z,14.70
2019-03-20T23:05:00.038Z,16.73
2019-03-20T23:07:27.445Z,17.47
2019-03-20T23:09:54.851Z,13.43
2019-03-20T23:12:22.275Z,14.97
2019-03-20T23:14:49.677Z,19.37
2019-03-20T23:17:17.118Z,21.50
2019-03-20T23:19:44.518Z,13.77
2019-03-20T23:22:11.962Z,16.43
2019-03-20T23:24:39.362Z,14.23
2019-03-20T23:27:06.810Z,13.37
2019-03-20T23:29:34.226Z,13.53
2019-03-20T23:32:01.638Z,14.20
2019-03-20T23:34:29.078Z,15.03
2019-03-20T23:36:56.512Z,14.43
2019-03-20T23:39:23.932Z,15.90
2019-03-20T23:41:51.363Z,17.03
2019-03-20T23:44:18.788Z,17.70
2019-03-20T23:46:46.209Z,18.13
2019-03-20T23:49:13.650Z,17.57
2019-03-20T23:51:41.088Z,18.13
2019-03-20T23:54:08.475Z,14.57
2019-03-20T23:56:35.870Z,16.23
2019-03-20T23:59:03.309Z,20.73
